Hauptseite
METAR-TAF:

METAR-TAF

Flughäfen :

Flughafen Touquet-Côte d’Opale

Le Touquet, Frankreich

Breite: 50-30-53N, Länge: 001-37-39E, Höhe: 6 m

Beobachtung

Neuester Wetterbericht von vor 21 Minuten, um 19:30 UTC
Wind 3 kt aus Südost
Temperatur 10°C
Luftfeuchtigkeit 93%
Luftdruck 1027 hPa
Sichtweite: 6000 m
Aufgelockert bewölkt in der Höhe von 1300 ft

METAR: LFAT 211930Z AUTO 13003KT 6000 SCT013 10/09 Q1027 NOSIG

Zeit: 21:51 (19:51 UTC)

Prognose

Neuester Wetterbericht von vor 1 Stunde und 50 Minuten, um 18:01 UTC
Gültige Prognose vom 21 um 18 UTC bis 21 um 24 UTC
Wind 5 kt aus West/Nordwest
Sichtweite 10 km oder mehr
keine Wolken unter 1500 m und keine Kumulonimbus oder Gewitterwolken

TAF: LFAT 211801Z 2118/2124 30005KT CAVOK

Wetterbeobachtungen und Prognosen von mehr als 4000 Flughäfen (METAR und TAF Bericht).

Die verfügbaren Stationen werden durch gelbe und rote Markierungen auf der Karte dargestellt.

Führen Sie die Maus auf sie, um den Namen der Station zu sehen.

Darauf klicken, um die Beobachtung von Wetterbeobachtungen und Prognosen zu sehen.

Um die Karte zu ändern : klicken Sie auf den grünen Tasten mit einem schwarzen Kreuz Zum Vergrößern, auf den grünen Button mit einem Gedankenstrich zu verkleinern, oder auf die grünen Pfeile für benachbarte Karten.


METAR-TAF: